createdAt,value
2023-01-19T00:00:51.548Z,100546.59
2023-01-19T00:03:21.768Z,100512.00
2023-01-19T00:05:48.540Z,100537.91
2023-01-19T00:08:15.621Z,100537.91
2023-01-19T00:10:44.770Z,100548.22
2023-01-19T00:13:13.538Z,100513.84
2023-01-19T00:15:40.191Z,100560.34
2023-01-19T00:18:07.975Z,100567.16
2023-01-19T00:20:36.057Z,100545.59
2023-01-19T00:23:04.705Z,100554.22
2023-01-19T00:25:31.710Z,100536.19
2023-01-19T00:28:00.592Z,100537.88
2023-01-19T00:30:28.405Z,100543.03
2023-01-19T00:32:55.071Z,100537.88
2023-01-19T00:35:21.690Z,100562.78
2023-01-19T00:37:48.355Z,100549.84
2023-01-19T00:40:15.361Z,100536.06
2023-01-19T00:42:44.265Z,100539.47
2023-01-19T00:45:13.764Z,100570.53
2023-01-19T00:47:40.733Z,100573.84
2023-01-19T00:50:11.744Z,100566.16
2023-01-19T00:52:42.053Z,100572.13
2023-01-19T00:55:13.117Z,100550.50
2023-01-19T00:57:40.870Z,100555.56
2023-01-19T01:00:12.262Z,100569.41
2023-01-19T01:02:40.596Z,100534.78
2023-01-19T01:05:08.851Z,100578.72
2023-01-19T01:07:40.830Z,100582.97
2023-01-19T01:10:09.768Z,100559.63
2023-01-19T01:12:38.022Z,100586.31
2023-01-19T01:15:07.099Z,100579.41
2023-01-19T01:17:33.736Z,100581.09
2023-01-19T01:20:00.509Z,100539.66
2023-01-19T01:22:27.678Z,100582.91
2023-01-19T01:24:54.482Z,100567.28
2023-01-19T01:27:21.018Z,100556.09
2023-01-19T01:29:48.329Z,100581.13
2023-01-19T01:32:15.848Z,100548.25
2023-01-19T01:34:43.041Z,100533.66
2023-01-19T01:37:09.700Z,100533.84
2023-01-19T01:39:36.818Z,100531.06
2023-01-19T01:42:14.176Z,100575.94
2023-01-19T01:44:53.297Z,100545.00
2023-01-19T01:47:32.638Z,100563.75
2023-01-19T01:50:19.599Z,100571.53
2023-01-19T01:53:15.238Z,100571.44
2023-01-19T01:55:48.325Z,100548.13
2023-01-19T01:58:16.736Z,100585.16
2023-01-19T02:01:02.056Z,100545.41
2023-01-19T02:03:29.386Z,100565.13
2023-01-19T02:06:00.749Z,100591.84
2023-01-19T02:09:05.108Z,100556.38
2023-01-19T02:11:51.964Z,100597.69
2023-01-19T02:14:19.175Z,100576.09
2023-01-19T02:16:46.561Z,100552.66
2023-01-19T02:19:21.841Z,100588.91
2023-01-19T02:22:07.248Z,100567.31
2023-01-19T02:24:34.152Z,100579.94
2023-01-19T02:27:01.300Z,100569.63
2023-01-19T02:29:28.700Z,100593.00
2023-01-19T02:31:56.215Z,100560.13
2023-01-19T02:34:23.218Z,100599.69
2023-01-19T02:37:06.740Z,100585.75
2023-01-19T02:39:45.795Z,100608.19
2023-01-19T02:42:21.882Z,100585.75
2023-01-19T02:44:51.776Z,100608.13
2023-01-19T02:47:18.434Z,100597.78
2023-01-19T02:49:45.148Z,100605.47
2023-01-19T02:52:17.807Z,100611.53
2023-01-19T02:55:03.888Z,100603.00
2023-01-19T02:58:06.570Z,100601.31
2023-01-19T03:01:13.563Z,100576.22
2023-01-19T03:03:56.305Z,100603.03
2023-01-19T03:06:33.537Z,100604.69
2023-01-19T03:09:21.679Z,100604.59
2023-01-19T03:11:55.339Z,100601.06
2023-01-19T03:14:26.730Z,100588.97
2023-01-19T03:17:06.997Z,100575.06
2023-01-19T03:19:39.363Z,100586.34
2023-01-19T03:22:13.431Z,100590.59
2023-01-19T03:24:43.345Z,100614.78
2023-01-19T03:27:14.892Z,100599.94
2023-01-19T03:29:46.069Z,100605.97
2023-01-19T03:32:16.550Z,100598.25
2023-01-19T03:34:45.065Z,100586.03
2023-01-19T03:37:14.292Z,100616.13
2023-01-19T03:39:41.103Z,100575.50
2023-01-19T03:42:12.848Z,100614.31
2023-01-19T03:44:42.306Z,100621.31
2023-01-19T03:47:11.874Z,100624.75
2023-01-19T03:49:41.622Z,100624.75
2023-01-19T03:52:08.475Z,100581.50
2023-01-19T03:54:35.100Z,100599.50
2023-01-19T03:57:01.780Z,100602.16
2023-01-19T03:59:28.477Z,100621.09
2023-01-19T04:01:55.200Z,100585.63
2023-01-19T04:04:21.857Z,100595.09
2023-01-19T04:06:48.345Z,100600.34
2023-01-19T04:09:15.044Z,100615.91
2023-01-19T04:11:41.520Z,100621.09
2023-01-19T04:14:08.179Z,100581.31
2023-01-19T04:16:35.244Z,100594.25
2023-01-19T04:19:01.851Z,100573.50
2023-01-19T04:21:28.344Z,100617.63
2023-01-19T04:23:55.016Z,100598.63
2023-01-19T04:26:21.712Z,100593.50
2023-01-19T04:28:48.329Z,100577.91
2023-01-19T04:31:15.111Z,100590.88
2023-01-19T04:33:41.702Z,100584.81
2023-01-19T04:36:08.884Z,100588.25
2023-01-19T04:38:35.631Z,100590.00
2023-01-19T04:41:02.216Z,100581.28
2023-01-19T04:43:28.797Z,100584.00
2023-01-19T04:45:55.295Z,100571.03
2023-01-19T04:48:22.064Z,100552.81
2023-01-19T04:50:50.957Z,100553.72
2023-01-19T04:53:18.554Z,100612.28
2023-01-19T04:55:45.197Z,100581.28
2023-01-19T04:58:11.822Z,100604.63
2023-01-19T05:00:38.479Z,100601.09
2023-01-19T05:03:05.750Z,100598.50
2023-01-19T05:05:33.364Z,100573.47
2023-01-19T05:08:00.823Z,100614.00
2023-01-19T05:10:27.542Z,100571.66
2023-01-19T05:12:54.306Z,100601.09
2023-01-19T05:15:21.261Z,100555.44
2023-01-19T05:17:48.104Z,100583.00
2023-01-19T05:20:16.414Z,100576.03
2023-01-19T05:22:48.544Z,100606.28
2023-01-19T05:25:15.139Z,100595.03
2023-01-19T05:27:41.627Z,100581.25
2023-01-19T05:30:09.033Z,100581.19
2023-01-19T05:32:35.697Z,100555.44
2023-01-19T05:35:02.379Z,100579.47
2023-01-19T05:37:29.173Z,100567.47
2023-01-19T05:39:56.137Z,100597.69
2023-01-19T05:42:22.810Z,100584.88
2023-01-19T05:44:49.438Z,100559.03
2023-01-19T05:47:16.204Z,100539.97
2023-01-19T05:49:42.906Z,100555.53
2023-01-19T05:52:09.697Z,100514.13
2023-01-19T05:54:36.521Z,100558.09
2023-01-19T05:57:04.377Z,100570.97
2023-01-19T05:59:30.979Z,100565.66
2023-01-19T06:01:57.750Z,100563.03
2023-01-19T06:04:24.857Z,100543.13
2023-01-19T06:06:52.040Z,100547.47
2023-01-19T06:09:21.470Z,100529.38
2023-01-19T06:12:04.923Z,100560.47
2023-01-19T06:14:39.006Z,100502.69
2023-01-19T06:17:12.179Z,100553.63
2023-01-19T06:19:38.889Z,100575.03
2023-01-19T06:22:11.353Z,100582.03
2023-01-19T06:24:47.376Z,100539.66
2023-01-19T06:27:16.921Z,100537.88
2023-01-19T06:29:43.775Z,100565.50
2023-01-19T06:32:12.928Z,100573.31
2023-01-19T06:34:57.597Z,100533.50
2023-01-19T06:37:43.604Z,100498.06
2023-01-19T06:40:14.720Z,100528.31
2023-01-19T06:42:42.301Z,100542.00
2023-01-19T06:45:10.697Z,100509.19
2023-01-19T06:47:37.311Z,100569.66
2023-01-19T06:50:04.149Z,100592.81
2023-01-19T06:53:22.511Z,100611.06
2023-01-19T06:55:49.139Z,100559.19
2023-01-19T06:58:21.288Z,100591.22
2023-01-19T07:01:11.251Z,100502.19
2023-01-19T07:03:47.066Z,100589.34
2023-01-19T07:06:13.685Z,100585.09
2023-01-19T07:08:43.357Z,100554.75
2023-01-19T07:11:25.888Z,100579.03
2023-01-19T07:14:04.908Z,100604.78
2023-01-19T07:16:37.558Z,100600.41
2023-01-19T07:19:11.747Z,100578.75
2023-01-19T07:21:39.296Z,100564.09
2023-01-19T07:24:08.746Z,100609.78
2023-01-19T07:26:35.452Z,100594.16
2023-01-19T07:29:02.447Z,100599.44
2023-01-19T07:31:29.453Z,100631.34
2023-01-19T07:34:01.327Z,100616.47
2023-01-19T07:36:40.730Z,100553.44
2023-01-19T07:39:07.545Z,100583.69
2023-01-19T07:41:34.273Z,100617.34
2023-01-19T07:44:18.915Z,100630.38
2023-01-19T07:46:46.874Z,100608.72
2023-01-19T07:49:20.138Z,100638.00
2023-01-19T07:54:42.197Z,100544.03
2023-01-19T07:57:39.199Z,100550.16
2023-01-19T08:00:06.562Z,100600.34
2023-01-19T08:02:37.960Z,100609.78
2023-01-19T08:05:29.371Z,100608.06
2023-01-19T08:08:04.333Z,100564.94
2023-01-19T08:10:31.438Z,100614.25
2023-01-19T08:12:58.769Z,100664.38
2023-01-19T08:15:26.834Z,100615.13
2023-01-19T08:18:02.016Z,100662.69
2023-01-19T08:20:32.662Z,100615.19
2023-01-19T08:23:15.030Z,100603.22
2023-01-19T08:25:44.864Z,100591.91
2023-01-19T08:28:39.195Z,100658.59
2023-01-19T08:31:19.193Z,100574.81
2023-01-19T08:33:47.814Z,100622.34
2023-01-19T08:36:14.590Z,100611.16
2023-01-19T08:38:43.475Z,100601.00
2023-01-19T08:41:11.342Z,100671.00
2023-01-19T08:43:40.930Z,100637.31
2023-01-19T08:46:07.633Z,100664.91
2023-01-19T08:48:34.347Z,100624.31
2023-01-19T08:51:01.005Z,100688.34
2023-01-19T08:53:27.735Z,100668.66
2023-01-19T08:55:57.768Z,100619.44
2023-01-19T08:58:24.565Z,100622.09
2023-01-19T09:00:53.915Z,100675.66
2023-01-19T09:03:24.371Z,100633.50
2023-01-19T09:05:51.145Z,100647.38
2023-01-19T09:08:18.377Z,100668.00
2023-01-19T09:10:50.761Z,100691.38
2023-01-19T09:13:19.096Z,100686.28
2023-01-19T09:15:46.362Z,100643.97
2023-01-19T09:18:16.589Z,100593.09
2023-01-19T09:20:44.799Z,100657.16
2023-01-19T09:23:14.482Z,100696.00
2023-01-19T09:25:42.488Z,100666.72
2023-01-19T09:28:11.183Z,100668.47
2023-01-19T09:30:41.510Z,100669.34
2023-01-19T09:33:13.808Z,100662.63
2023-01-19T09:35:42.187Z,100683.41
2023-01-19T09:38:10.314Z,100666.22
2023-01-19T09:40:48.827Z,100632.66
2023-01-19T09:43:35.476Z,100639.78
2023-01-19T09:46:06.108Z,100699.38
2023-01-19T09:48:54.152Z,100692.63
2023-01-19T09:51:29.838Z,100658.13
2023-01-19T09:54:00.074Z,100695.47
2023-01-19T09:56:34.255Z,100698.13
2023-01-19T09:59:01.090Z,100641.22
2023-01-19T10:01:48.654Z,100696.75
2023-01-19T10:04:15.246Z,100703.72
2023-01-19T10:06:42.492Z,100708.09
2023-01-19T10:09:24.440Z,100671.94
2023-01-19T10:12:17.912Z,100709.28
2023-01-19T10:14:52.940Z,100713.69
2023-01-19T10:17:34.372Z,100713.84
2023-01-19T10:20:03.485Z,100695.88
2023-01-19T10:22:30.116Z,100700.34
2023-01-19T10:25:01.495Z,100679.00
2023-01-19T10:27:34.005Z,100700.72
2023-01-19T10:30:04.326Z,100699.91
2023-01-19T10:32:36.109Z,100678.66
2023-01-19T10:35:25.193Z,100711.59
2023-01-19T10:37:56.442Z,100696.19
2023-01-19T10:40:37.291Z,100705.88
2023-01-19T10:43:35.794Z,100710.44
2023-01-19T10:46:06.746Z,100702.88
2023-01-19T10:48:42.846Z,100680.69
2023-01-19T10:51:11.212Z,100706.75
2023-01-19T10:53:38.021Z,100695.69
2023-01-19T10:56:16.384Z,100717.47
2023-01-19T10:58:43.677Z,100711.63
2023-01-19T11:01:25.646Z,100661.78
2023-01-19T11:03:54.273Z,100674.00
2023-01-19T11:06:29.172Z,100679.38
2023-01-19T11:09:19.135Z,100701.03
2023-01-19T11:11:55.857Z,100671.00
2023-01-19T11:14:24.888Z,100645.28
2023-01-19T11:16:54.959Z,100649.75
2023-01-19T11:19:30.361Z,100692.03
2023-01-19T11:22:21.689Z,100701.56
2023-01-19T11:24:51.044Z,100659.47
2023-01-19T11:27:20.195Z,100625.97
2023-01-19T11:29:50.516Z,100695.69
2023-01-19T11:32:23.120Z,100657.00
2023-01-19T11:34:50.509Z,100699.19
2023-01-19T11:37:20.115Z,100698.31
2023-01-19T11:39:52.481Z,100683.66
2023-01-19T11:42:19.800Z,100659.56
2023-01-19T11:44:51.009Z,100643.25
2023-01-19T11:47:26.208Z,100681.94
2023-01-19T11:50:05.135Z,100684.50
2023-01-19T11:52:48.041Z,100664.72
2023-01-19T11:55:39.274Z,100669.88
2023-01-19T11:58:06.088Z,100667.31
2023-01-19T12:00:50.601Z,100663.00
2023-01-19T12:03:49.099Z,100693.09
2023-01-19T12:06:22.343Z,100669.84
2023-01-19T12:08:53.485Z,100623.44
2023-01-19T12:11:35.898Z,100656.09
2023-01-19T12:14:02.822Z,100668.13
2023-01-19T12:16:32.824Z,100669.84
2023-01-19T12:19:13.733Z,100648.38
2023-01-19T12:21:41.266Z,100656.97
2023-01-19T12:24:18.577Z,100687.91
2023-01-19T12:27:00.861Z,100672.44
2023-01-19T12:29:37.111Z,100671.56
2023-01-19T12:32:19.719Z,100674.94
2023-01-19T12:34:51.884Z,100678.31
2023-01-19T12:37:30.818Z,100674.88
2023-01-19T12:40:02.836Z,100637.84
2023-01-19T12:42:30.113Z,100639.47
2023-01-19T12:45:11.968Z,100628.25
2023-01-19T12:47:38.975Z,100603.22
2023-01-19T12:50:14.023Z,100614.34
2023-01-19T12:52:51.550Z,100615.97
2023-01-19T12:55:25.392Z,100651.19
2023-01-19T12:57:58.785Z,100663.13
2023-01-19T13:00:25.307Z,100659.66
2023-01-19T13:03:02.615Z,100657.09
2023-01-19T13:05:33.244Z,100657.06
2023-01-19T13:08:04.919Z,100626.13
2023-01-19T13:10:59.384Z,100651.06
2023-01-19T13:13:29.256Z,100630.50
2023-01-19T13:15:58.257Z,100644.25
2023-01-19T13:18:31.835Z,100635.66
2023-01-19T13:21:01.614Z,100605.59
2023-01-19T13:23:52.303Z,100626.25
2023-01-19T13:26:33.135Z,100611.75
2023-01-19T13:29:12.738Z,100634.97
2023-01-19T13:31:42.606Z,100639.25
2023-01-19T13:34:14.679Z,100598.91
2023-01-19T13:36:45.467Z,100604.03
2023-01-19T13:39:18.486Z,100615.97
2023-01-19T13:41:47.194Z,100622.00
2023-01-19T13:44:25.457Z,100646.91
2023-01-19T13:46:54.022Z,100616.91
2023-01-19T13:49:29.929Z,100650.34
2023-01-19T13:52:07.046Z,100660.72
2023-01-19T13:54:33.721Z,100631.50
2023-01-19T13:57:00.474Z,100628.13
2023-01-19T13:59:27.280Z,100643.59
2023-01-19T14:01:54.502Z,100635.03
2023-01-19T14:04:30.439Z,100650.53
2023-01-19T14:07:04.097Z,100668.56
2023-01-19T14:09:30.880Z,100677.22
2023-01-19T14:12:16.086Z,100671.22
2023-01-19T14:14:44.057Z,100629.97
2023-01-19T14:17:25.100Z,100668.66
2023-01-19T14:19:54.835Z,100655.81
2023-01-19T14:22:21.978Z,100640.38
2023-01-19T14:24:48.608Z,100657.53
2023-01-19T14:27:22.657Z,100630.06
2023-01-19T14:29:50.796Z,100650.72
2023-01-19T14:32:25.251Z,100666.19
2023-01-19T14:35:04.324Z,100695.44
2023-01-19T14:37:37.347Z,100652.44
2023-01-19T14:40:13.860Z,100697.16
2023-01-19T14:42:55.729Z,100702.31
2023-01-19T14:45:33.467Z,100704.94
2023-01-19T14:48:02.026Z,100672.28
2023-01-19T14:50:39.265Z,100698.03
2023-01-19T14:53:14.780Z,100689.47
2023-01-19T14:55:51.183Z,100680.00
2023-01-19T14:58:19.820Z,100679.97
2023-01-19T15:00:48.003Z,100679.13
2023-01-19T15:03:15.184Z,100697.16
2023-01-19T15:05:46.964Z,100709.19
2023-01-19T15:08:33.653Z,100685.13
2023-01-19T15:11:12.362Z,100704.94
2023-01-19T15:13:40.500Z,100707.44
2023-01-19T15:16:08.973Z,100704.91
2023-01-19T15:18:35.549Z,100688.53
2023-01-19T15:21:03.182Z,100713.47
2023-01-19T15:23:31.068Z,100714.31
2023-01-19T15:26:03.758Z,100722.06
2023-01-19T15:28:30.937Z,100697.19
2023-01-19T15:30:59.226Z,100689.47
2023-01-19T15:33:30.454Z,100721.25
2023-01-19T15:35:57.277Z,100720.47
2023-01-19T15:38:24.067Z,100727.34
2023-01-19T15:40:51.631Z,100717.06
2023-01-19T15:43:18.678Z,100749.78
2023-01-19T15:45:53.180Z,100739.50
2023-01-19T15:48:20.530Z,100757.56
2023-01-19T15:50:47.891Z,100766.16
2023-01-19T15:53:17.463Z,100739.53
2023-01-19T15:55:44.875Z,100766.25
2023-01-19T15:58:14.827Z,100764.53
2023-01-19T16:00:41.731Z,100710.31
2023-01-19T16:03:10.448Z,100743.91
2023-01-19T16:05:43.018Z,100778.34
2023-01-19T16:08:13.565Z,100765.44
2023-01-19T16:10:41.808Z,100749.06
2023-01-19T16:13:12.243Z,100727.56
2023-01-19T16:15:39.583Z,100762.84
2023-01-19T16:18:06.392Z,100780.06
2023-01-19T16:20:33.031Z,100763.69
2023-01-19T16:23:13.759Z,100749.88
2023-01-19T16:25:41.386Z,100765.38
2023-01-19T16:28:08.510Z,100757.59
2023-01-19T16:30:35.428Z,100783.38
2023-01-19T16:33:02.134Z,100762.69
2023-01-19T16:35:28.745Z,100806.56
2023-01-19T16:37:55.299Z,100809.97
2023-01-19T16:40:22.023Z,100805.59
2023-01-19T16:42:48.609Z,100822.81
2023-01-19T16:45:15.185Z,100815.84
2023-01-19T16:47:41.813Z,100845.16
2023-01-19T16:50:11.629Z,100848.56
2023-01-19T16:52:38.746Z,100857.97
2023-01-19T16:55:09.608Z,100818.25
2023-01-19T16:57:39.066Z,100857.84
2023-01-19T17:00:07.919Z,100808.66
2023-01-19T17:02:35.025Z,100809.47
2023-01-19T17:05:01.751Z,100846.44
2023-01-19T17:07:28.625Z,100838.63
2023-01-19T17:09:56.348Z,100832.53
2023-01-19T17:12:23.166Z,100829.88
2023-01-19T17:14:50.090Z,100853.06
2023-01-19T17:17:16.819Z,100850.47
2023-01-19T17:19:45.188Z,100848.66
2023-01-19T17:22:13.011Z,100797.63
2023-01-19T17:24:42.356Z,100852.78
2023-01-19T17:27:09.952Z,100882.03
2023-01-19T17:29:36.691Z,100833.56
2023-01-19T17:32:04.039Z,100854.19
2023-01-19T17:34:30.718Z,100860.97
2023-01-19T17:37:03.394Z,100884.97
2023-01-19T17:39:30.400Z,100905.56
2023-01-19T17:41:57.479Z,100914.91
2023-01-19T17:44:24.122Z,100879.34
2023-01-19T17:46:51.373Z,100887.00
2023-01-19T17:49:17.998Z,100891.19
2023-01-19T17:51:44.671Z,100898.84
2023-01-19T17:54:11.604Z,100913.38
2023-01-19T17:56:39.463Z,100892.50
2023-01-19T17:59:08.199Z,100866.53
2023-01-19T18:01:39.745Z,100892.31
2023-01-19T18:04:08.597Z,100934.47
2023-01-19T18:06:35.674Z,100942.94
2023-01-19T18:09:05.236Z,100903.09
2023-01-19T18:11:32.145Z,100883.03
2023-01-19T18:14:00.433Z,100960.63
2023-01-19T18:16:28.998Z,100887.91
2023-01-19T18:18:57.089Z,100910.22
2023-01-19T18:21:27.478Z,100951.50
2023-01-19T18:24:01.374Z,100943.50
2023-01-19T18:26:29.220Z,100947.72
2023-01-19T18:28:59.579Z,100947.59
2023-01-19T18:31:27.257Z,100957.75
2023-01-19T18:33:54.073Z,100992.25
2023-01-19T18:36:21.013Z,100945.38
2023-01-19T18:38:47.969Z,100961.75
2023-01-19T18:41:19.850Z,100966.78
2023-01-19T18:43:47.606Z,100970.97
2023-01-19T18:46:15.591Z,100995.19
2023-01-19T18:48:42.459Z,100953.38
2023-01-19T18:51:17.041Z,100909.34
2023-01-19T18:53:53.385Z,100937.59
2023-01-19T18:56:19.983Z,101000.78
2023-01-19T18:58:46.714Z,101001.44
2023-01-19T19:01:19.648Z,101006.47
2023-01-19T19:03:46.538Z,100997.66
2023-01-19T19:06:15.156Z,100983.81
2023-01-19T19:08:43.408Z,100995.69
2023-01-19T19:11:12.091Z,100967.88
2023-01-19T19:13:40.550Z,100969.59
2023-01-19T19:16:08.782Z,101019.59
2023-01-19T19:18:37.099Z,101021.16
2023-01-19T19:21:13.127Z,101009.72
2023-01-19T19:23:39.766Z,100987.94
2023-01-19T19:26:11.940Z,101003.53
2023-01-19T19:28:40.650Z,100973.91
2023-01-19T19:31:13.120Z,101006.75
2023-01-19T19:33:40.493Z,101025.78
2023-01-19T19:36:08.007Z,101050.09
2023-01-19T19:38:36.798Z,101053.44
2023-01-19T19:41:08.487Z,101030.91
2023-01-19T19:43:36.174Z,101012.75
2023-01-19T19:46:08.437Z,101049.84
2023-01-19T19:48:38.134Z,101039.38
2023-01-19T19:51:17.934Z,101062.78
2023-01-19T19:53:45.718Z,101014.13
2023-01-19T19:56:13.382Z,101047.84
2023-01-19T19:58:41.896Z,101061.81
2023-01-19T20:01:25.335Z,101039.53
2023-01-19T20:03:53.663Z,101031.59
2023-01-19T20:06:23.594Z,101007.47
2023-01-19T20:08:52.940Z,101020.59
2023-01-19T20:11:22.915Z,101063.13
2023-01-19T20:13:50.950Z,101041.63
2023-01-19T20:16:21.131Z,101043.41
2023-01-19T20:18:51.809Z,101036.66
2023-01-19T20:21:19.972Z,101063.41
2023-01-19T20:23:48.197Z,101073.03
2023-01-19T20:26:17.900Z,101050.59
2023-01-19T20:28:44.771Z,101057.50
2023-01-19T20:31:27.678Z,101089.56
2023-01-19T20:33:57.174Z,101042.72
2023-01-19T20:36:24.665Z,101113.78
2023-01-19T20:38:52.895Z,101040.19
2023-01-19T20:41:20.313Z,101042.66
2023-01-19T20:43:47.549Z,101091.16
2023-01-19T20:46:14.187Z,101091.94
2023-01-19T20:48:41.043Z,101105.66
2023-01-19T20:51:13.248Z,101102.13
2023-01-19T20:53:41.441Z,101088.41
2023-01-19T20:56:11.959Z,101091.88
2023-01-19T20:58:39.254Z,101116.91
2023-01-19T21:01:22.298Z,101102.91
2023-01-19T21:03:49.610Z,101122.69
2023-01-19T21:06:17.716Z,101146.84
2023-01-19T21:08:44.933Z,101122.50
2023-01-19T21:11:13.301Z,101122.41
2023-01-19T21:13:40.463Z,101138.78
2023-01-19T21:16:08.099Z,101134.41
2023-01-19T21:18:35.203Z,101142.25
2023-01-19T21:21:01.905Z,101129.13
2023-01-19T21:23:28.953Z,101108.44
2023-01-19T21:25:59.148Z,101146.38
2023-01-19T21:28:28.087Z,101123.09
2023-01-19T21:30:55.674Z,101166.31
2023-01-19T21:33:23.049Z,101128.34
2023-01-19T21:35:54.474Z,101143.75
2023-01-19T21:38:22.100Z,101128.94
2023-01-19T21:40:52.087Z,101087.38
2023-01-19T21:43:20.435Z,101130.56
2023-01-19T21:45:53.685Z,101102.78
2023-01-19T21:48:20.585Z,101156.41
2023-01-19T21:50:58.679Z,101179.03
2023-01-19T21:53:25.377Z,101132.13
2023-01-19T21:55:52.122Z,101173.78
2023-01-19T21:58:19.013Z,101114.63
2023-01-19T22:00:46.893Z,101160.69
2023-01-19T22:03:14.063Z,101149.41
2023-01-19T22:05:41.225Z,101183.28
2023-01-19T22:08:08.282Z,101171.06
2023-01-19T22:10:37.278Z,101165.91
2023-01-19T22:13:04.246Z,101147.72
2023-01-19T22:15:33.578Z,101152.94
2023-01-19T22:18:00.524Z,101173.59
2023-01-19T22:20:27.915Z,101162.25
2023-01-19T22:22:57.438Z,101129.84
2023-01-19T22:25:27.936Z,101184.16
2023-01-19T22:27:55.790Z,101177.06
2023-01-19T22:30:22.914Z,101162.28
2023-01-19T22:32:49.892Z,101175.94
2023-01-19T22:35:16.938Z,101208.66
2023-01-19T22:37:44.864Z,101187.75
2023-01-19T22:40:14.216Z,101158.97
2023-01-19T22:42:46.035Z,101217.88
2023-01-19T22:45:13.227Z,101219.38
2023-01-19T22:47:41.392Z,101199.31
2023-01-19T22:50:09.152Z,101193.03
2023-01-19T22:52:46.058Z,101221.84
2023-01-19T22:55:13.257Z,101161.78
2023-01-19T22:57:40.141Z,101207.81
2023-01-19T23:00:08.932Z,101230.56
2023-01-19T23:02:35.685Z,101239.31
2023-01-19T23:05:02.323Z,101236.88
2023-01-19T23:07:29.085Z,101204.03
2023-01-19T23:09:55.730Z,101239.78
2023-01-19T23:12:22.338Z,101231.06
2023-01-19T23:14:49.351Z,101246.69
2023-01-19T23:17:15.942Z,101246.84
2023-01-19T23:19:42.491Z,101241.56
2023-01-19T23:22:09.238Z,101245.03
2023-01-19T23:24:36.009Z,101256.13
2023-01-19T23:27:02.650Z,101235.13
2023-01-19T23:29:29.291Z,101241.13
2023-01-19T23:31:57.111Z,101256.59
2023-01-19T23:34:23.722Z,101274.75
2023-01-19T23:36:50.498Z,101252.97
2023-01-19T23:39:20.391Z,101237.25
2023-01-19T23:41:47.735Z,101238.00
2023-01-19T23:44:14.796Z,101240.44
2023-01-19T23:46:41.814Z,101288.03
2023-01-19T23:49:08.557Z,101251.56
2023-01-19T23:51:35.858Z,101283.56
2023-01-19T23:54:02.716Z,101228.81
2023-01-19T23:56:32.913Z,101237.34
2023-01-19T23:59:02.668Z,101282.34
